Main page
METAR-TAF:

Airports :

Waddington, England

RAF Waddington

latitude: 53-10N, longitude: 000-31W, elevation: 68 m

Current weather observation

The report was made 50 minutes ago, at 00:50 UTC
Wind 11 kt from the Southwest
Temperature 13°C
Humidity 82%
Pressure 1021 hPa
Visibility 10 km or more
no clouds below 1500 m and no cumulonimbus

METAR: EGXW 280050Z 23011KT CAVOK 13/10 Q1021 BLU

Time: 02:40 (01:40 UTC)

Forecast

The report was made 11 hours and 59 minutes ago, at 13:41 UTC
Forecast valid from 27 at 15 UTC to 27 at 21 UTC
Wind 15 kt from the Southwest
Visibility 10 km or more
Broken clouds at a height of 1300 ft
Becoming
from 27 at 15 UTC to 27 at 18 UTC
Few clouds at a height of 2500 ft

TAF: EGXW 271341Z 2715/2721 23015KT 9999 BKN013 BECMG 2715/2718 FEW025

METAR-TAF

Weather observations and forecasts of more than 4000 airports (METAR and TAF reports).

The available stations are represented by yellow and red dots on the map.

Hover mouse over dot to see the name of the station.

Then click to see weather observations and forecasts.

To change the map : click on the green buttons with a black cross to zoom in, on the green button with a dash to zoom out, or on the green arrows for adjacent maps.


METAR-TAF: